Time;durP1;ratioP1;P1;durP2;ratioP2;P2;SDS_P1;SDS_P2;PMS_P1;PMS_P2;Temp;Humidity;BMP_temperature;BMP_pressure;BME280_temperature;BME280_humidity;BME280_pressure;Samples;Min_cycle;Max_cycle;Signal;HPM_P1;HPM_P2
2023/04/11 00:00:48;;;;;;;;;;;;;;;;;;4960697;28;20258;-86
2023/04/11 00:03:36;;;;;;;;;;;;;;;;;;;;;
2023/04/11 00:06:33;;;;;;;;;;;;;;;;;;;;;
2023/04/11 00:12:23;;;;;;;;;;;;;;;;;;;;;
2023/04/11 00:15:14;;;;;;;;;;;;;;;;;;5061532;28;20373;-86
2023/04/11 00:18:27;;;;;;;;;;;;;;;;;;;;;
2023/04/11 00:24:15;;;;;;;;;;;;;;;;;;5044707;28;19928;-86
2023/04/11 00:26:41;;;;;;;;;;;;;;;;;;5040151;28;19927;-85
2023/04/11 00:29:16;;;;;;;;;;;;;;;;;;5031476;28;19931;-85
2023/04/11 00:36:09;;;;;;;;;;;;;;;;;;5034891;28;19928;-86
2023/04/11 00:38:09;;;;;;;;;;;;;;;;;;5010677;28;20036;-85
2023/04/11 00:41:11;;;;;;;;;;;;;;;;;;5046549;28;19958;-85
2023/04/11 00:47:06;;;;;;;;;;;;;;;;;;5047897;28;19924;-85
2023/04/11 00:49:54;;;;;;;;;;;;;;;;;;5033574;28;19924;-85
2023/04/11 00:52:29;;;;;;;;;;;;;;;;;;5026786;28;19936;-85
2023/04/11 00:58:37;;;;;;;;;;;;;;;;;;;;;
2023/04/11 01:01:13;;;;;;;;;;;;;;;;;;5021911;28;19932;-85
2023/04/11 01:03:58;;;;;;;;;;;;;;;;;;5039060;28;19974;-85
2023/04/11 01:06:33;;;;;;;;;;;;;;;;;;5043318;28;20006;-85
2023/04/11 01:09:05;;;;;;;;;;;;;;;;;;5039674;28;19927;-85
2023/04/11 01:11:40;;;;;;;;;;;;;;;;;;5041544;28;20418;-85
2023/04/11 01:14:36;;;;;;;;;;;;;;;;;;5062550;28;19927;-85
2023/04/11 01:17:44;;;;;;;;;;;;;;;;;;;;;
2023/04/11 01:20:37;;;;;;;;;;;;;;;;;;5080418;28;19920;-85
2023/04/11 01:23:09;;;;;;;;;;;;;;;;;;5041940;28;19971;-85
2023/04/11 01:25:38;;;;;;;;;;;;;;;;;;5036608;28;19924;-85
2023/04/11 01:28:42;;;;;;;;;;;;;;;;;;5060545;28;19993;-85
2023/04/11 01:31:21;;;;;;;;;;;;;;;;;;;;;
2023/04/11 01:34:11;;;;;;;;;;;;;;;;;;;;;
2023/04/11 01:40:02;;;;;;;;;;;;;;;;;;;;;
2023/04/11 01:45:32;;;;;;;;;;;;;;;;;;5007118;28;20026;-85
2023/04/11 01:51:14;;;;;;;;;;;;;;;;;;;;;
2023/04/11 01:56:40;;;;;;;;;;;;;;;;;;4966734;28;19930;-85
2023/04/11 01:59:15;;;;;;;;;;;;;;;;;;4970435;28;20746;-85
2023/04/11 02:05:06;;;;;;;;;;;;;;;;;;4969339;28;19925;-86
2023/04/11 02:08:18;;;;;;;;;;;;;;;;;;;;;
2023/04/11 02:14:23;;;;;;;;;;;;;;;;;;4932714;28;20079;-85
2023/04/11 02:17:09;;;;;;;;;;;;;;;;;;4989551;28;21404;-86
2023/04/11 02:19:59;;;;;;;;;;;;;;;;;;4953197;28;20427;-85
2023/04/11 02:22:36;;;;;;;;;;;;;;;;;;4999264;28;20442;-85
2023/04/11 02:25:21;;;;;;;;;;;;;;;;;;;;;
2023/04/11 02:30:55;;;;;;;;;;;;;;;;;;5019201;28;19929;-85
2023/04/11 02:33:44;;;;;;;;;;;;;;;;;;;;;
2023/04/11 02:36:30;;;;;;;;;;;;;;;;;;5048162;28;19933;-86
2023/04/11 02:39:26;;;;;;;;;;;;;;;;;;5043662;28;19920;-87
2023/04/11 02:42:08;;;;;;;;;;;;;;;;;;;;;
2023/04/11 02:48:09;;;;;;;;;;;;;;;;;;;;;
2023/04/11 02:50:59;;;;;;;;;;;;;;;;;;5032223;28;20015;-87
2023/04/11 02:53:45;;;;;;;;;;;;;;;;;;5049050;28;19924;-86
2023/04/11 02:56:33;;;;;;;;;;;;;;;;;;5030271;28;20450;-86
2023/04/11 02:59:24;;;;;;;;;;;;;;;;;;;;;
2023/04/11 03:02:18;;;;;;;;;;;;;;;;;;5053681;28;20353;-86
2023/04/11 03:11:09;;;;;;;;;;;;;;;;;;5045764;28;19941;-86
2023/04/11 03:16:42;;;;;;;;;;;;;;;;;;5000321;28;19925;-86
2023/04/11 03:19:39;;;;;;;;;;;;;;;;;;;;;
2023/04/11 03:22:22;;;;;;;;;;;;;;;;;;5040582;28;19927;-86
2023/04/11 03:30:30;;;;;;;;;;;;;;;;;;5011406;28;19925;-86
2023/04/11 03:37:05;;;;;;;;;;;;;;;;;;5042200;28;19928;-85
2023/04/11 03:39:40;;;;;;;;;;;;;;;;;;5050033;28;19920;-85
2023/04/11 03:48:30;;;;;;;;;;;;;;;;;;;;;
2023/04/11 03:51:20;;;;;;;;;;;;;;;;;;5045183;28;20053;-86
2023/04/11 03:57:02;;;;;;;;;;;;;;;;;;;;;
2023/04/11 03:59:51;;;;;;;;;;;;;;;;;;;;;
2023/04/11 04:02:36;;;;;;;;;;;;;;;;;;5046162;28;19936;-85
2023/04/11 04:05:24;;;;;;;;;;;;;;;;;;;;;
2023/04/11 04:07:56;;;;;;;;;;;;;;;;;;5028623;28;19935;-85
2023/04/11 04:13:45;;;;;;;;;;;;;;;;;;5039964;28;19920;-85
2023/04/11 04:19:29;;;;;;;;;;;;;;;;;;4996849;28;19979;-86
2023/04/11 04:25:25;;;;;;;;;;;;;;;;;;4997919;28;19924;-86
2023/04/11 04:31:24;;;;;;;;;;;;;;;;;;;;;
2023/04/11 04:40:28;;;;;;;;;;;;;;;;;;4972821;28;20308;-86
2023/04/11 04:42:58;;;;;;;;;;;;;;;;;;4951785;28;19930;-86
2023/04/11 04:45:46;;;;;;;;;;;;;;;;;;4936244;28;20828;-85
2023/04/11 04:48:24;;;;;;;;;;;;;;;;;;4929191;28;20543;-86
2023/04/11 04:54:10;;;;;;;;;;;;;;;;;;;;;
2023/04/11 04:56:51;;;;;;;;;;;;;;;;;;4955735;28;20412;-85
2023/04/11 04:59:22;;;;;;;;;;;;;;;;;;4925436;28;20289;-85
2023/04/11 05:01:58;;;;;;;;;;;;;;;;;;4939424;28;19933;-85
2023/04/11 05:04:28;;;;;;;;;;;;;;;;;;4957237;28;19963;-86
2023/04/11 05:07:04;;;;;;;;;;;;;;;;;;5019443;28;20086;-86
2023/04/11 05:09:54;;;;;;;;;;;;;;;;;;5025032;28;19920;-85
2023/04/11 05:12:39;;;;;;;;;;;;;;;;;;5009220;28;19940;-85
2023/04/11 05:15:21;;;;;;;;;;;;;;;;;;;;;
2023/04/11 05:17:53;;;;;;;;;;;;;;;;;;5038494;28;19940;-86
2023/04/11 05:20:39;;;;;;;;;;;;;;;;;;5028833;28;19931;-86
2023/04/11 05:23:11;;;;;;;;;;;;;;;;;;5034750;28;19927;-84
2023/04/11 05:25:37;;;;;;;;;;;;;;;;;;4998353;28;20287;-85
2023/04/11 05:28:20;;;;;;;;;;;;;;;;;;5007615;28;20324;-85
2023/04/11 05:30:55;;;;;;;;;;;;;;;;;;5001653;28;20362;-85
2023/04/11 05:36:16;;;;;;;;;;;;;;;;;;4979903;28;20035;-85
2023/04/11 05:38:42;;;;;;;;;;;;;;;;;;4961369;28;20392;-85
2023/04/11 05:41:10;;;;;;;;;;;;;;;;;;4942536;28;19964;-86
2023/04/11 05:43:39;;;;;;;;;;;;;;;;;;4944356;28;20683;-85
2023/04/11 05:46:07;;;;;;;;;;;;;;;;;;4957189;28;19929;-86
2023/04/11 05:48:33;;;;;;;;;;;;;;;;;;4963370;28;19942;-85
2023/04/11 05:50:59;;;;;;;;;;;;;;;;;;4957385;28;19938;-85
2023/04/11 05:53:25;;;;;;;;;;;;;;;;;;4963263;28;19922;-85
2023/04/11 05:55:51;;;;;;;;;;;;;;;;;;4959208;28;19931;-85
2023/04/11 05:58:17;;;;;;;;;;;;;;;;;;4984606;28;20025;-85
2023/04/11 06:00:44;;;;;;;;;;;;;;;;;;5003957;28;19931;-85
2023/04/11 06:03:10;;;;;;;;;;;;;;;;;;4994766;28;19929;-85
2023/04/11 06:05:36;;;;;;;;;;;;;;;;;;5005759;28;19980;-85
2023/04/11 06:08:02;;;;;;;;;;;;;;;;;;5028063;28;19935;-85
2023/04/11 06:10:28;;;;;;;;;;;;;;;;;;5017248;28;19928;-86
2023/04/11 06:12:54;;;;;;;;;;;;;;;;;;5036598;28;19924;-86
2023/04/11 06:15:21;;;;;;;;;;;;;;;;;;5021056;28;19930;-86
2023/04/11 06:17:47;;;;;;;;;;;;;;;;;;5016480;28;19932;-86
2023/04/11 06:20:13;;;;;;;;;;;;;;;;;;5018694;28;19966;-86
2023/04/11 06:22:39;;;;;;;;;;;;;;;;;;5020346;28;20011;-86
2023/04/11 06:25:05;;;;;;;;;;;;;;;;;;5017151;28;20046;-86
2023/04/11 06:27:31;;;;;;;;;;;;;;;;;;5023833;28;20006;-86
2023/04/11 06:29:59;;;;;;;;;;;;;;;;;;5016252;28;19966;-85
2023/04/11 06:32:26;;;;;;;;;;;;;;;;;;5014320;28;19932;-85
2023/04/11 06:34:52;;;;;;;;;;;;;;;;;;5019350;28;19920;-86
2023/04/11 06:37:18;;;;;;;;;;;;;;;;;;5055890;28;20003;-86
2023/04/11 06:39:44;;;;;;;;;;;;;;;;;;5060566;28;19928;-85
2023/04/11 06:42:10;;;;;;;;;;;;;;;;;;5065315;28;20455;-85
2023/04/11 06:44:36;;;;;;;;;;;;;;;;;;5053699;28;19924;-85
2023/04/11 06:47:02;;;;;;;;;;;;;;;;;;5053528;28;19924;-85
2023/04/11 06:49:28;;;;;;;;;;;;;;;;;;5041049;28;19928;-86
2023/04/11 06:51:54;;;;;;;;;;;;;;;;;;5044106;28;19928;-86
2023/04/11 06:54:20;;;;;;;;;;;;;;;;;;5059933;28;20007;-85
2023/04/11 06:56:46;;;;;;;;;;;;;;;;;;5042917;28;19924;-86
2023/04/11 06:59:12;;;;;;;;;;;;;;;;;;5058001;28;19931;-86
2023/04/11 07:01:38;;;;;;;;;;;;;;;;;;5031381;28;19920;-85
2023/04/11 07:04:07;;;;;;;;;;;;;;;;;;5071799;28;19924;-85
2023/04/11 07:06:36;;;;;;;;;;;;;;;;;;5040219;28;19920;-86
2023/04/11 07:09:02;;;;;;;;;;;;;;;;;;5050569;28;20049;-85
2023/04/11 07:11:30;;;;;;;;;;;;;;;;;;5072428;28;19920;-86
2023/04/11 07:13:56;;;;;;;;;;;;;;;;;;5053430;28;20018;-86
2023/04/11 07:16:22;;;;;;;;;;;;;;;;;;5076440;28;20060;-86
2023/04/11 07:18:51;;;;;;;;;;;;;;;;;;5035278;28;20336;-86
2023/04/11 07:21:17;;;;;;;;;;;;;;;;;;5062031;28;19928;-85
2023/04/11 07:23:43;;;;;;;;;;;;;;;;;;5065372;28;20405;-86
2023/04/11 07:26:10;;;;;;;;;;;;;;;;;;5039986;28;20925;-86
2023/04/11 07:28:39;;;;;;;;;;;;;;;;;;5056626;28;20065;-84
2023/04/11 07:31:07;;;;;;;;;;;;;;;;;;5048996;28;19931;-85
2023/04/11 07:33:33;;;;;;;;;;;;;;;;;;5025445;28;20019;-85
2023/04/11 07:36:02;;;;;;;;;;;;;;;;;;5031643;28;20007;-85
2023/04/11 07:38:28;;;;;;;;;;;;;;;;;;5059689;28;20335;-85
2023/04/11 07:40:55;;;;;;;;;;;;;;;;;;5035135;28;19925;-85
2023/04/11 07:43:20;;;;;;;;;;;;;;;;;;5060275;28;20289;-85
2023/04/11 07:45:46;;;;;;;;;;;;;;;;;;5053262;28;19926;-85
2023/04/11 07:48:12;;;;;;;;;;;;;;;;;;5050424;28;19949;-86
2023/04/11 07:50:38;;;;;;;;;;;;;;;;;;5030245;28;20427;-85
2023/04/11 07:53:07;;;;;;;;;;;;;;;;;;5026294;28;19921;-85
2023/04/11 07:55:33;;;;;;;;;;;;;;;;;;5051142;28;20443;-85
2023/04/11 07:57:59;;;;;;;;;;;;;;;;;;5029895;28;19929;-85
2023/04/11 08:00:25;;;;;;;;;;;;;;;;;;5049205;28;20366;-85
2023/04/11 08:02:58;;;;;;;;;;;;;;;;;;5062722;28;20385;-85
2023/04/11 08:05:24;;;;;;;;;;;;;;;;;;5036132;28;20389;-85
2023/04/11 08:07:52;;;;;;;;;;;;;;;;;;5034319;28;20332;-85
2023/04/11 08:10:18;;;;;;;;;;;;;;;;;;5042930;28;19955;-86
2023/04/11 08:12:44;;;;;;;;;;;;;;;;;;5040970;28;19927;-88
2023/04/11 08:15:10;;;;;;;;;;;;;;;;;;5032839;28;19928;-87
2023/04/11 08:17:37;;;;;;;;;;;;;;;;;;5043640;28;20031;-87
2023/04/11 08:20:21;;;;;;;;;;;;;;;;;;5053580;28;19968;-87
2023/04/11 08:22:47;;;;;;;;;;;;;;;;;;5041091;28;19924;-87
2023/04/11 08:25:13;;;;;;;;;;;;;;;;;;5036387;28;19924;-87
2023/04/11 08:27:39;;;;;;;;;;;;;;;;;;5029000;28;19921;-86
2023/04/11 08:30:13;;;;;;;;;;;;;;;;;;5041785;28;19920;-87
2023/04/11 08:32:45;;;;;;;;;;;;;;;;;;5054652;28;19932;-86
2023/04/11 08:44:29;;;;;;;;;;;;;;;;;;;;;
2023/04/11 08:47:13;;;;;;;;;;;;;;;;;;5026178;28;20417;-86
2023/04/11 08:49:55;;;;;;;;;;;;;;;;;;5029202;28;20023;-86
2023/04/11 08:52:38;;;;;;;;;;;;;;;;;;5011016;28;19929;-86
2023/04/11 08:55:28;;;;;;;;;;;;;;;;;;5038531;28;19929;-86
2023/04/11 09:00:58;;;;;;;;;;;;;;;;;;4997088;28;19964;-86
2023/04/11 09:06:31;;;;;;;;;;;;;;;;;;4924324;29;19931;-86
2023/04/11 09:09:07;;;;;;;;;;;;;;;;;;4935165;28;20234;-86
2023/04/11 09:11:54;;;;;;;;;;;;;;;;;;4959419;28;19922;-87
2023/04/11 09:14:25;;;;;;;;;;;;;;;;;;4964211;28;19940;-87
2023/04/11 09:20:07;;;;;;;;;;;;;;;;;;;;;
2023/04/11 09:22:38;;;;;;;;;;;;;;;;;;4974773;28;19964;-86
2023/04/11 09:25:25;;;;;;;;;;;;;;;;;;4960568;28;19929;-86
2023/04/11 09:27:53;;;;;;;;;;;;;;;;;;4974178;28;19922;-87
2023/04/11 09:30:39;;;;;;;;;;;;;;;;;;4981255;28;19926;-86
2023/04/11 09:33:28;;;;;;;;;;;;;;;;;;5015026;28;19929;-87
2023/04/11 09:36:04;;;;;;;;;;;;;;;;;;5071989;28;20021;-86
2023/04/11 09:38:32;;;;;;;;;;;;;;;;;;5057973;28;20545;-86
2023/04/11 09:41:22;;;;;;;;;;;;;;;;;;5051056;28;19955;-86
2023/04/11 09:49:34;;;;;;;;;;;;;;;;;;5075585;28;19924;-87
2023/04/11 09:55:01;;;;;;;;;;;;;;;;;;5057868;28;19924;-87
2023/04/11 10:00:50;;;;;;;;;;;;;;;;;;;;;
2023/04/11 10:03:22;;;;;;;;;;;;;;;;;;5071579;28;20741;-86
2023/04/11 10:05:58;;;;;;;;;;;;;;;;;;5076256;28;19928;-86
2023/04/11 10:08:52;;;;;;;;;;;;;;;;;;5066960;28;19928;-86
2023/04/11 10:11:43;;;;;;;;;;;;;;;;;;5069766;28;19964;-86
2023/04/11 10:14:24;;;;;;;;;;;;;;;;;;5075528;28;19973;-86
2023/04/11 10:17:18;;;;;;;;;;;;;;;;;;5074065;28;21320;-86
2023/04/11 10:20:03;;;;;;;;;;;;;;;;;;5055797;28;19924;-86
2023/04/11 10:22:48;;;;;;;;;;;;;;;;;;5083172;28;20002;-86
2023/04/11 10:25:51;;;;;;;;;;;;;;;;;;;;;
2023/04/11 10:28:17;;;;;;;;;;;;;;;;;;5064774;28;20389;-87
2023/04/11 10:30:58;;;;;;;;;;;;;;;;;;5052672;28;20007;-87
2023/04/11 10:33:58;;;;;;;;;;;;;;;;;;5033339;28;19928;-87
2023/04/11 10:36:42;;;;;;;;;;;;;;;;;;5056495;28;19924;-86
2023/04/11 10:39:36;;;;;;;;;;;;;;;;;;5020724;28;19964;-86
2023/04/11 10:42:11;;;;;;;;;;;;;;;;;;5026398;28;20363;-87
2023/04/11 10:44:59;;;;;;;;;;;;;;;;;;5019686;28;19967;-86
2023/04/11 10:47:50;;;;;;;;;;;;;;;;;;5015154;28;19924;-86
2023/04/11 10:50:39;;;;;;;;;;;;;;;;;;4995593;28;19972;-85
2023/04/11 10:56:36;;;;;;;;;;;;;;;;;;5012577;28;19921;-86
2023/04/11 10:59:18;;;;;;;;;;;;;;;;;;4982346;28;19960;-86
2023/04/11 11:01:56;;;;;;;;;;;;;;;;;;4986858;28;20458;-85
2023/04/11 11:07:23;;;;;;;;;;;;;;;;;;4991215;28;20474;-86
2023/04/11 11:09:55;;;;;;;;;;;;;;;;;;5005426;28;20334;-85
2023/04/11 11:12:36;;;;;;;;;;;;;;;;;;5021284;28;19935;-85
2023/04/11 11:15:05;;;;;;;;;;;;;;;;;;4998020;28;19932;-85
2023/04/11 11:17:51;;;;;;;;;;;;;;;;;;5031975;28;19929;-85
2023/04/11 11:20:37;;;;;;;;;;;;;;;;;;5006698;28;20023;-87
2023/04/11 11:23:12;;;;;;;;;;;;;;;;;;5051411;28;19924;-87
2023/04/11 11:25:50;;;;;;;;;;;;;;;;;;5025177;28;20647;-86
2023/04/11 11:28:35;;;;;;;;;;;;;;;;;;5032567;28;19921;-86
2023/04/11 11:31:10;;;;;;;;;;;;;;;;;;5010277;28;19920;-86
2023/04/11 11:33:41;;;;;;;;;;;;;;;;;;5029688;28;20375;-86
2023/04/11 11:39:09;;;;;;;;;;;;;;;;;;5036266;28;20317;-86
2023/04/11 11:41:47;;;;;;;;;;;;;;;;;;5044252;28;20014;-85
2023/04/11 11:44:34;;;;;;;;;;;;;;;;;;5051920;28;20360;-85
2023/04/11 11:47:18;;;;;;;;;;;;;;;;;;5064221;28;19968;-85
2023/04/11 11:50:18;;;;;;;;;;;;;;;;;;;;;
2023/04/11 11:53:01;;;;;;;;;;;;;;;;;;;;;
2023/04/11 11:55:36;;;;;;;;;;;;;;;;;;5012784;28;19925;-85
2023/04/11 11:58:30;;;;;;;;;;;;;;;;;;5029385;28;20366;-86
2023/04/11 12:01:08;;;;;;;;;;;;;;;;;;4993965;28;19929;-85
2023/04/11 12:03:36;;;;;;;;;;;;;;;;;;5005867;28;20008;-85
2023/04/11 12:06:12;;;;;;;;;;;;;;;;;;5010201;28;19920;-85
2023/04/11 12:08:48;;;;;;;;;;;;;;;;;;;;;
2023/04/11 12:11:24;;;;;;;;;;;;;;;;;;5012065;28;19932;-85
2023/04/11 12:13:59;;;;;;;;;;;;;;;;;;4994084;28;20543;-85
2023/04/11 12:16:28;;;;;;;;;;;;;;;;;;4995590;28;20379;-85
2023/04/11 12:18:56;;;;;;;;;;;;;;;;;;4992525;28;19971;-85
2023/04/11 12:24:38;;;;;;;;;;;;;;;;;;5073414;28;19920;-85
2023/04/11 12:27:10;;;;;;;;;;;;;;;;;;5042262;28;19982;-85
2023/04/11 12:29:51;;;;;;;;;;;;;;;;;;5043451;28;19924;-85
2023/04/11 12:32:37;;;;;;;;;;;;;;;;;;5010984;28;20692;-85
2023/04/11 12:35:11;;;;;;;;;;;;;;;;;;4988200;28;20196;-85
2023/04/11 12:37:51;;;;;;;;;;;;;;;;;;5017627;28;19940;-85
2023/04/11 12:40:33;;;;;;;;;;;;;;;;;;5010164;28;19951;-85
2023/04/11 12:45:57;;;;;;;;;;;;;;;;;;;;;
2023/04/11 12:48:31;;;;;;;;;;;;;;;;;;4994566;28;19944;-85
2023/04/11 12:54:03;;;;;;;;;;;;;;;;;;5004056;28;19972;-85
2023/04/11 12:56:32;;;;;;;;;;;;;;;;;;5010260;28;19988;-84
2023/04/11 12:59:01;;;;;;;;;;;;;;;;;;5008864;28;19921;-85
2023/04/11 13:01:32;;;;;;;;;;;;;;;;;;4999447;28;19925;-85
2023/04/11 13:04:11;;;;;;;;;;;;;;;;;;;;;
2023/04/11 13:06:41;;;;;;;;;;;;;;;;;;5043633;28;20063;-84
2023/04/11 13:12:38;;;;;;;;;;;;;;;;;;5052591;28;19931;-84
2023/04/11 13:15:24;;;;;;;;;;;;;;;;;;5031027;28;20317;-85
2023/04/11 13:17:53;;;;;;;;;;;;;;;;;;4972756;28;20548;-84
2023/04/11 13:20:22;;;;;;;;;;;;;;;;;;4980026;28;19926;-85
2023/04/11 13:23:14;;;;;;;;;;;;;;;;;;4988029;28;19929;-84
2023/04/11 13:25:54;;;;;;;;;;;;;;;;;;4978047;28;19928;-84
2023/04/11 13:28:25;;;;;;;;;;;;;;;;;;4980244;28;19930;-84
2023/04/11 13:31:09;;;;;;;;;;;;;;;;;;4993416;28;20392;-84
2023/04/11 13:33:46;;;;;;;;;;;;;;;;;;4978913;28;19930;-84
2023/04/11 13:36:31;;;;;;;;;;;;;;;;;;5032406;28;20012;-84
2023/04/11 13:39:08;;;;;;;;;;;;;;;;;;5026768;28;19932;-84
2023/04/11 13:44:25;;;;;;;;;;;;;;;;;;5034297;28;19979;-84
2023/04/11 13:47:00;;;;;;;;;;;;;;;;;;5030777;28;19973;-85
2023/04/11 13:49:37;;;;;;;;;;;;;;;;;;5058867;28;19927;-84
2023/04/11 13:55:13;;;;;;;;;;;;;;;;;;5062250;28;19968;-84
2023/04/11 13:57:39;;;;;;;;;;;;;;;;;;5068870;28;19967;-84
2023/04/11 14:00:14;;;;;;;;;;;;;;;;;;5041394;28;20599;-84
2023/04/11 14:03:04;;;;;;;;;;;;;;;;;;5048113;28;20035;-84
2023/04/11 14:05:38;;;;;;;;;;;;;;;;;;5076285;28;19932;-84
2023/04/11 14:08:10;;;;;;;;;;;;;;;;;;5055972;28;19924;-84
2023/04/11 14:10:51;;;;;;;;;;;;;;;;;;5065345;28;19928;-85
2023/04/11 14:13:32;;;;;;;;;;;;;;;;;;5048243;28;19935;-84
2023/04/11 14:15:58;;;;;;;;;;;;;;;;;;5059454;28;19927;-85
2023/04/11 14:18:43;;;;;;;;;;;;;;;;;;;;;
2023/04/11 14:21:15;;;;;;;;;;;;;;;;;;5062234;28;19935;-84
2023/04/11 14:23:43;;;;;;;;;;;;;;;;;;5053025;28;19978;-84
2023/04/11 14:26:59;;;;;;;;;;;;;;;;;;5057514;28;19931;-84
2023/04/11 14:29:46;;;;;;;;;;;;;;;;;;5063012;28;20237;-85
2023/04/11 14:32:26;;;;;;;;;;;;;;;;;;5066995;28;19928;-84
2023/04/11 14:34:55;;;;;;;;;;;;;;;;;;5058403;28;19928;-85
2023/04/11 14:37:27;;;;;;;;;;;;;;;;;;5063304;28;19928;-84
2023/04/11 14:40:13;;;;;;;;;;;;;;;;;;5057226;28;19954;-85
2023/04/11 14:48:45;;;;;;;;;;;;;;;;;;4978060;28;19955;-84
2023/04/11 14:51:24;;;;;;;;;;;;;;;;;;;;;
2023/04/11 14:53:53;;;;;;;;;;;;;;;;;;4986058;28;19940;-85
2023/04/11 14:56:25;;;;;;;;;;;;;;;;;;4988184;28;19928;-84
2023/04/11 15:02:08;;;;;;;;;;;;;;;;;;5056086;28;19928;-85
2023/04/11 15:04:44;;;;;;;;;;;;;;;;;;5071394;28;20442;-85
2023/04/11 15:07:29;;;;;;;;;;;;;;;;;;5069124;28;19935;-85
2023/04/11 15:10:11;;;;;;;;;;;;;;;;;;;;;
2023/04/11 15:12:54;;;;;;;;;;;;;;;;;;5055301;28;20017;-85
2023/04/11 15:15:23;;;;;;;;;;;;;;;;;;5051104;28;19920;-85
2023/04/11 15:17:57;;;;;;;;;;;;;;;;;;5066893;28;19945;-85
2023/04/11 15:23:52;;;;;;;;;;;;;;;;;;5028675;28;19931;-84
2023/04/11 15:26:28;;;;;;;;;;;;;;;;;;5065137;28;19931;-85
2023/04/11 15:29:03;;;;;;;;;;;;;;;;;;5058199;28;20018;-84
2023/04/11 15:31:31;;;;;;;;;;;;;;;;;;5068155;28;19928;-84
2023/04/11 15:34:12;;;;;;;;;;;;;;;;;;5045830;28;20035;-84
2023/04/11 15:36:44;;;;;;;;;;;;;;;;;;5061210;28;19928;-84
2023/04/11 15:39:10;;;;;;;;;;;;;;;;;;5065519;28;19932;-84
2023/04/11 15:44:58;;;;;;;;;;;;;;;;;;5057952;28;19920;-84
2023/04/11 15:47:42;;;;;;;;;;;;;;;;;;5052791;28;20290;-84
2023/04/11 15:50:08;;;;;;;;;;;;;;;;;;5051967;28;19920;-84
2023/04/11 15:52:46;;;;;;;;;;;;;;;;;;5067550;28;19995;-83
2023/04/11 15:55:18;;;;;;;;;;;;;;;;;;5066316;28;20383;-84
2023/04/11 15:58:13;;;;;;;;;;;;;;;;;;5057722;28;20011;-84
2023/04/11 16:03:42;;;;;;;;;;;;;;;;;;5069621;28;19924;-84
2023/04/11 16:06:18;;;;;;;;;;;;;;;;;;5047208;28;19927;-85
2023/04/11 16:12:03;;;;;;;;;;;;;;;;;;5052734;28;19921;-84
2023/04/11 16:14:44;;;;;;;;;;;;;;;;;;5055235;28;19950;-84
2023/04/11 16:23:06;;;;;;;;;;;;;;;;;;5069267;28;20309;-84
2023/04/11 16:25:32;;;;;;;;;;;;;;;;;;5067477;28;20039;-84
2023/04/11 16:28:19;;;;;;;;;;;;;;;;;;5050011;28;20349;-84
2023/04/11 16:30:57;;;;;;;;;;;;;;;;;;;;;
2023/04/11 16:36:29;;;;;;;;;;;;;;;;;;5065888;28;19947;-84
2023/04/11 16:38:58;;;;;;;;;;;;;;;;;;5045065;28;20367;-85
2023/04/11 16:41:42;;;;;;;;;;;;;;;;;;5065492;28;20358;-84
2023/04/11 16:44:12;;;;;;;;;;;;;;;;;;5046180;28;19934;-84
2023/04/11 16:49:44;;;;;;;;;;;;;;;;;;5063738;28;19966;-84
2023/04/11 16:52:20;;;;;;;;;;;;;;;;;;5057041;28;19928;-84
2023/04/11 16:54:50;;;;;;;;;;;;;;;;;;5047010;28;19943;-85
2023/04/11 16:57:35;;;;;;;;;;;;;;;;;;5052358;28;20015;-84
2023/04/11 17:00:22;;;;;;;;;;;;;;;;;;5052456;28;20011;-84
2023/04/11 17:03:01;;;;;;;;;;;;;;;;;;;;;
2023/04/11 17:05:37;;;;;;;;;;;;;;;;;;5087182;28;20044;-84
2023/04/11 17:11:18;;;;;;;;;;;;;;;;;;5068264;28;20266;-84
2023/04/11 17:13:48;;;;;;;;;;;;;;;;;;5066688;28;19977;-84
2023/04/11 17:16:20;;;;;;;;;;;;;;;;;;5068320;28;19990;-84
2023/04/11 17:19:13;;;;;;;;;;;;;;;;;;5045782;28;19955;-85
2023/04/11 17:21:44;;;;;;;;;;;;;;;;;;5065551;28;19956;-84
2023/04/11 17:24:22;;;;;;;;;;;;;;;;;;5066190;28;20575;-84
2023/04/11 17:26:50;;;;;;;;;;;;;;;;;;5053755;28;19930;-84
2023/04/11 17:29:19;;;;;;;;;;;;;;;;;;5051472;28;19927;-84
2023/04/11 17:31:48;;;;;;;;;;;;;;;;;;5055327;28;20065;-84
2023/04/11 17:34:16;;;;;;;;;;;;;;;;;;5041485;28;19928;-84
2023/04/11 17:36:58;;;;;;;;;;;;;;;;;;5066934;28;19979;-84
2023/04/11 17:39:30;;;;;;;;;;;;;;;;;;5070023;28;19973;-85
2023/04/11 17:42:14;;;;;;;;;;;;;;;;;;5045923;28;20023;-84
2023/04/11 17:48:06;;;;;;;;;;;;;;;;;;;;;
2023/04/11 17:50:30;;;;;;;;;;;;;;;;;;5023677;28;19963;-84
2023/04/11 17:53:09;;;;;;;;;;;;;;;;;;5005469;28;19925;-83
2023/04/11 17:55:38;;;;;;;;;;;;;;;;;;5028397;28;19978;-84
2023/04/11 17:58:10;;;;;;;;;;;;;;;;;;5021459;28;19929;-84
2023/04/11 18:00:46;;;;;;;;;;;;;;;;;;5019401;28;20456;-84
2023/04/11 18:06:24;;;;;;;;;;;;;;;;;;5047217;28;19924;-84
2023/04/11 18:08:59;;;;;;;;;;;;;;;;;;5027400;28;19928;-84
2023/04/11 18:11:27;;;;;;;;;;;;;;;;;;5020202;28;19924;-84
2023/04/11 18:14:06;;;;;;;;;;;;;;;;;;5042135;28;20023;-84
2023/04/11 18:16:40;;;;;;;;;;;;;;;;;;5060875;28;19924;-83
2023/04/11 18:19:09;;;;;;;;;;;;;;;;;;5047028;28;21766;-84
2023/04/11 18:21:37;;;;;;;;;;;;;;;;;;5070096;28;19980;-84
2023/04/11 18:24:19;;;;;;;;;;;;;;;;;;;;;
2023/04/11 18:26:54;;;;;;;;;;;;;;;;;;5064964;28;19998;-84
2023/04/11 18:29:33;;;;;;;;;;;;;;;;;;;;;
2023/04/11 18:32:07;;;;;;;;;;;;;;;;;;5063776;28;19927;-84
2023/04/11 18:34:39;;;;;;;;;;;;;;;;;;5047578;28;20015;-84
2023/04/11 18:37:40;;;;;;;;;;;;;;;;;;;;;
2023/04/11 18:40:36;;;;;;;;;;;;;;;;;;5069802;28;20420;-83
2023/04/11 18:43:08;;;;;;;;;;;;;;;;;;5072422;28;19943;-84
2023/04/11 18:45:40;;;;;;;;;;;;;;;;;;5065078;28;20317;-84
2023/04/11 18:48:15;;;;;;;;;;;;;;;;;;5063611;28;21042;-84
2023/04/11 18:50:47;;;;;;;;;;;;;;;;;;5063988;28;19928;-84
2023/04/11 18:59:41;;;;;;;;;;;;;;;;;;;;;
2023/04/11 19:02:25;;;;;;;;;;;;;;;;;;5043087;28;19954;-83
2023/04/11 19:11:05;;;;;;;;;;;;;;;;;;5029723;28;20422;-84
2023/04/11 19:16:47;;;;;;;;;;;;;;;;;;;;;
2023/04/11 19:22:24;;;;;;;;;;;;;;;;;;4962226;28;21560;-84
2023/04/11 19:25:05;;;;;;;;;;;;;;;;;;5016644;28;19932;-83
2023/04/11 19:27:56;;;;;;;;;;;;;;;;;;;;;
2023/04/11 19:30:24;;;;;;;;;;;;;;;;;;4992183;28;19929;-83
2023/04/11 19:32:55;;;;;;;;;;;;;;;;;;4931333;28;19978;-84
2023/04/11 19:35:25;;;;;;;;;;;;;;;;;;4917419;28;19930;-84
2023/04/11 19:37:57;;;;;;;;;;;;;;;;;;4907609;28;20135;-84
2023/04/11 19:40:35;;;;;;;;;;;;;;;;;;4943193;28;20425;-84
2023/04/11 19:43:22;;;;;;;;;;;;;;;;;;4944217;28;19933;-84
2023/04/11 19:46:13;;;;;;;;;;;;;;;;;;4939828;28;19922;-84
2023/04/11 19:48:42;;;;;;;;;;;;;;;;;;4936460;28;19927;-84
2023/04/11 19:51:22;;;;;;;;;;;;;;;;;;4939183;28;19930;-84
2023/04/11 20:03:08;;;;;;;;;;;;;;;;;;4970298;28;19983;-84
2023/04/11 20:05:58;;;;;;;;;;;;;;;;;;4975199;28;20402;-84
2023/04/11 20:14:54;;;;;;;;;;;;;;;;;;5004518;28;19925;-84
2023/04/11 20:18:20;;;;;;;;;;;;;;;;;;4994568;28;19925;-84
2023/04/11 20:23:21;;;;;;;;;;;;;;;;;;5030109;28;19935;-84
2023/04/11 20:25:47;;;;;;;;;;;;;;;;;;5036475;28;20003;-84
2023/04/11 20:28:13;;;;;;;;;;;;;;;;;;5026839;28;20031;-84
2023/04/11 20:30:41;;;;;;;;;;;;;;;;;;5035324;28;19920;-84
2023/04/11 20:33:07;;;;;;;;;;;;;;;;;;5043567;28;19925;-84
2023/04/11 20:35:33;;;;;;;;;;;;;;;;;;5038030;28;20514;-84
2023/04/11 20:38:00;;;;;;;;;;;;;;;;;;5031434;28;19932;-84
2023/04/11 20:40:25;;;;;;;;;;;;;;;;;;5069022;28;20018;-84
2023/04/11 20:42:52;;;;;;;;;;;;;;;;;;5052384;28;20049;-84
2023/04/11 20:45:20;;;;;;;;;;;;;;;;;;5066316;28;19981;-84
2023/04/11 20:47:48;;;;;;;;;;;;;;;;;;5061667;28;20361;-84
2023/04/11 20:50:15;;;;;;;;;;;;;;;;;;5051145;28;19959;-84
2023/04/11 20:52:42;;;;;;;;;;;;;;;;;;5051098;28;20386;-83
2023/04/11 20:55:08;;;;;;;;;;;;;;;;;;5062461;28;19921;-84
2023/04/11 20:57:43;;;;;;;;;;;;;;;;;;5055639;28;19928;-84
2023/04/11 21:00:13;;;;;;;;;;;;;;;;;;5074553;28;20397;-84
2023/04/11 21:02:40;;;;;;;;;;;;;;;;;;5070003;28;19935;-84
2023/04/11 21:05:09;;;;;;;;;;;;;;;;;;5074339;28;19924;-84
2023/04/11 21:07:35;;;;;;;;;;;;;;;;;;5061250;28;19927;-83
2023/04/11 21:10:02;;;;;;;;;;;;;;;;;;5056019;28;20282;-84
2023/04/11 21:12:30;;;;;;;;;;;;;;;;;;5079714;28;20070;-84
2023/04/11 21:14:57;;;;;;;;;;;;;;;;;;5076621;28;19932;-84
2023/04/11 21:17:23;;;;;;;;;;;;;;;;;;5073075;28;19924;-84
2023/04/11 21:19:49;;;;;;;;;;;;;;;;;;5059932;28;19920;-84
2023/04/11 21:22:15;;;;;;;;;;;;;;;;;;5077303;28;19970;-84
2023/04/11 21:24:47;;;;;;;;;;;;;;;;;;5065125;28;19917;-84
2023/04/11 21:27:13;;;;;;;;;;;;;;;;;;5065362;28;19924;-84
2023/04/11 21:29:39;;;;;;;;;;;;;;;;;;5069050;28;20348;-83
2023/04/11 21:32:05;;;;;;;;;;;;;;;;;;5079671;28;19958;-84
2023/04/11 21:34:33;;;;;;;;;;;;;;;;;;5075368;28;20394;-83
2023/04/11 21:36:59;;;;;;;;;;;;;;;;;;5067075;28;19931;-83
2023/04/11 21:39:25;;;;;;;;;;;;;;;;;;5070131;28;20358;-84
2023/04/11 21:41:51;;;;;;;;;;;;;;;;;;5053765;28;19963;-84
2023/04/11 21:44:17;;;;;;;;;;;;;;;;;;5051233;28;20442;-84
2023/04/11 21:46:43;;;;;;;;;;;;;;;;;;5052266;28;19924;-84
2023/04/11 21:49:12;;;;;;;;;;;;;;;;;;5052760;28;20963;-84
2023/04/11 21:51:38;;;;;;;;;;;;;;;;;;5069294;28;20002;-84
2023/04/11 21:54:04;;;;;;;;;;;;;;;;;;5083687;27;20404;-84
2023/04/11 21:56:30;;;;;;;;;;;;;;;;;;5090413;27;19931;-84
2023/04/11 21:58:56;;;;;;;;;;;;;;;;;;5050913;28;20294;-84
2023/04/11 22:01:22;;;;;;;;;;;;;;;;;;5053809;28;19928;-84
2023/04/11 22:03:51;;;;;;;;;;;;;;;;;;5069600;28;20046;-84
2023/04/11 22:06:25;;;;;;;;;;;;;;;;;;5059352;28;20023;-84
2023/04/11 22:08:51;;;;;;;;;;;;;;;;;;5065921;28;19927;-84